Time;durP1;ratioP1;P1;durP2;ratioP2;P2;SDS_P1;SDS_P2;PMS_P1;PMS_P2;Temp;Humidity;BMP_temperature;BMP_pressure;BME280_temperature;BME280_humidity;BME280_pressure;Samples;Min_cycle;Max_cycle;Signal;HPM_P1;HPM_P2
2021/07/25 00:00:00;;;;;;;;;3.00;3.00;;;;;22.67;56.26;100473.72;4703461;30;45624;-91
2021/07/25 00:02:38;;;;;;;;;3.00;3.00;;;;;22.63;56.69;100464.00;4821432;24;47330;-89
2021/07/25 00:05:23;;;;;;;;;3.33;2.00;;;;;22.58;56.56;100463.28;4882562;24;45444;-90
2021/07/25 00:11:54;;;;;;;;;3.67;3.00;;;;;22.61;56.52;100468.56;4780744;29;45671;-89
2021/07/25 00:15:11;;;;;;;;;2.00;2.00;;;;;22.40;56.38;100444.31;4789142;29;46184;-89
2021/07/25 00:17:57;;;;;;;;;5.00;3.00;;;;;22.34;56.70;100448.06;4701394;30;45539;-89
2021/07/25 00:20:34;;;;;;;;;3.00;2.00;;;;;22.47;56.95;100471.72;4699835;30;45484;-90
2021/07/25 00:23:00;;;;;;;;;4.00;3.00;;;;;22.44;57.14;100470.06;4699383;30;45308;-89
2021/07/25 00:25:26;;;;;;;;;5.33;3.00;;;;;22.48;57.04;100473.47;4684648;30;47265;-89
2021/07/25 00:28:00;;;;;;;;;4.00;2.33;;;;;22.42;56.31;100463.88;4684489;30;45574;-90
2021/07/25 00:31:30;;;;;;;;;;;;;;;;;;;;;
2021/07/25 00:34:33;;;;;;;;;3.33;2.00;;;;;22.42;56.42;100471.91;4698967;30;64541;-89
2021/07/25 00:37:29;;;;;;;;;4.67;2.00;;;;;22.32;56.53;100458.84;4667152;30;47314;-90
2021/07/25 00:40:43;;;;;;;;;1.67;1.67;;;;;22.22;56.58;100449.41;4839303;24;46315;-88
2021/07/25 00:43:26;;;;;;;;;2.33;2.00;;;;;22.31;56.95;100457.13;4744626;29;45453;-91
2021/07/25 00:45:52;;;;;;;;;3.33;2.33;;;;;22.16;56.60;100431.78;4936908;24;45524;-90
2021/07/25 00:48:18;;;;;;;;;1.00;1.00;;;;;22.17;56.91;100429.94;4849715;24;47018;-91
2021/07/25 00:53:23;;;;;;;;;2.00;2.00;;;;;22.19;57.15;100446.81;4933388;24;67772;-90
2021/07/25 00:55:58;;;;;;;;;2.00;2.00;;;;;22.24;57.34;100454.69;4794205;29;45365;-91
2021/07/25 00:59:29;;;;;;;;;2.67;2.00;;;;;22.19;57.83;100441.47;4795034;29;47789;-91
2021/07/25 01:02:55;;;;;;;;;;;;;;;;;;;;;
2021/07/25 01:09:43;;;;;;;;;1.00;1.00;;;;;22.16;57.16;100436.25;4655555;30;44816;-91
2021/07/25 01:12:36;;;;;;;;;1.00;1.00;;;;;22.12;56.98;100434.59;4639743;30;47196;-91
2021/07/25 01:18:47;;;;;;;;;2.00;2.00;;;;;21.97;57.67;100420.84;4798678;24;45518;-91
2021/07/25 01:22:13;;;;;;;;;;;;;;;;;;;;;
2021/07/25 01:25:13;;;;;;;;;3.33;2.00;;;;;22.00;57.43;100435.94;4791566;29;76599;-92
2021/07/25 01:27:46;;;;;;;;;4.00;3.00;;;;;21.96;57.02;100427.09;4740082;29;45389;-92
2021/07/25 01:30:16;;;;;;;;;4.00;2.00;;;;;21.96;57.26;100436.03;4739920;29;45471;-91
2021/07/25 01:32:45;;;;;;;;;7.33;6.00;;;;;21.92;57.11;100422.78;4794612;24;45308;-90
2021/07/25 01:35:14;;;;;;;;;3.00;3.00;;;;;22.00;57.60;100442.13;4809337;29;46694;-91
2021/07/25 01:37:47;;;;;;;;;3.00;2.67;;;;;21.83;57.84;100419.53;4815252;24;45786;-90
2021/07/25 01:44:54;;;;;;;;;;;;;;;;;;;;;
2021/07/25 01:47:44;;;;;;;;;2.00;2.00;;;;;21.83;57.74;100419.53;4752351;29;45581;-90
2021/07/25 01:51:23;;;;;;;;;4.00;2.00;;;;;21.94;57.73;100442.34;4686447;30;45542;-92
2021/07/25 01:53:57;;;;;;;;;;;;;;;;;;;;;
2021/07/25 01:57:08;;;;;;;;;2.67;2.00;;;;;21.72;58.08;100409.16;4631642;30;65010;-90
2021/07/25 01:59:34;;;;;;;;;3.00;1.33;;;;;21.80;58.45;100419.59;4633982;30;46853;-90
2021/07/25 02:01:59;;;;;;;;;5.00;3.00;;;;;21.74;58.31;100414.47;4633036;30;45492;-91
2021/07/25 02:04:25;;;;;;;;;3.00;2.00;;;;;21.89;58.49;100438.97;4632754;30;45494;-91
2021/07/25 02:07:45;;;;;;;;;;;;;;;;;;;;;
2021/07/25 02:10:23;;;;;;;;;2.00;2.00;;;;;21.68;58.15;100410.19;4630740;30;75439;-91
2021/07/25 02:13:24;;;;;;;;;3.33;2.00;;;;;21.63;58.42;100410.38;4618259;30;45416;-91
2021/07/25 02:15:51;;;;;;;;;2.33;2.33;;;;;21.63;58.76;100406.81;4619341;30;45284;-91
2021/07/25 02:20:47;;;;;;;;;1.67;1.67;;;;;21.73;58.46;100420.72;4919167;24;45972;-89
2021/07/25 02:24:08;;;;;;;;;3.33;1.67;;;;;21.64;58.68;100412.09;4795931;29;45307;-91
2021/07/25 02:26:57;;;;;;;;;;;;;;;;;;;;;
2021/07/25 02:29:23;;;;;;;;;3.00;3.00;;;;;21.69;58.71;100408.38;4808945;29;64473;-90
2021/07/25 02:32:28;;;;;;;;;4.00;4.00;;;;;21.75;58.67;100416.19;4810996;29;45391;-90
2021/07/25 02:35:12;;;;;;;;;2.33;2.00;;;;;21.74;58.88;100419.81;4789024;29;45559;-89
2021/07/25 02:37:40;;;;;;;;;2.00;2.00;;;;;21.62;59.05;100400.56;4790618;29;45274;-90
2021/07/25 02:40:07;;;;;;;;;4.33;2.00;;;;;21.73;58.90;100410.03;4772267;29;45651;-89
2021/07/25 02:43:10;;;;;;;;;3.00;3.00;;;;;21.77;59.18;100416.13;4757583;29;47915;-90
2021/07/25 02:45:46;;;;;;;;;4.00;2.33;;;;;21.68;58.58;100395.97;4773652;29;46039;-90
2021/07/25 02:49:22;;;;;;;;;;;;;;;;;;;;;
2021/07/25 02:52:17;;;;;;;;;3.67;3.00;;;;;21.67;59.16;100407.56;4735385;30;45588;-89
2021/07/25 02:54:43;;;;;;;;;3.00;3.00;;;;;21.53;59.04;100387.53;4719619;30;48191;-89
2021/07/25 02:57:08;;;;;;;;;2.33;2.33;;;;;21.50;58.94;100382.28;4735814;30;45446;-89
2021/07/25 02:59:34;;;;;;;;;4.00;2.00;;;;;21.57;58.99;100402.56;4745312;29;45392;-90
2021/07/25 03:03:09;;;;;;;;;3.00;3.00;;;;;21.61;60.13;100406.00;4753932;29;45484;-89
2021/07/25 03:05:35;;;;;;;;;4.00;3.00;;;;;21.53;59.92;100395.56;4837329;24;47280;-89
2021/07/25 03:12:16;;;;;;;;;4.00;4.00;;;;;21.51;60.73;100408.97;4771542;29;45399;-89
2021/07/25 03:17:18;;;;;;;;;3.33;2.00;;;;;21.32;61.85;100387.31;4778057;29;45419;-90
2021/07/25 03:22:23;;;;;;;;;3.00;3.00;;;;;21.20;62.22;100375.22;4926875;24;46994;-90
2021/07/25 03:24:51;;;;;;;;;4.00;2.33;;;;;21.33;61.68;100399.78;4775517;29;45433;-90
2021/07/25 03:27:33;;;;;;;;;4.00;3.00;;;;;21.25;62.18;100394.69;4775417;29;47234;-89
2021/07/25 03:29:58;;;;;;;;;4.33;2.67;;;;;21.15;62.30;100372.72;4791645;29;45448;-90
2021/07/25 03:32:34;;;;;;;;;3.00;3.00;;;;;21.17;62.20;100383.38;4775012;29;45343;-90
2021/07/25 03:35:02;;;;;;;;;3.33;3.33;;;;;21.06;62.02;100367.69;4781345;24;45279;-90
2021/07/25 03:41:00;;;;;;;;;4.00;3.00;;;;;21.16;62.01;100387.84;4801140;24;45423;-90
2021/07/25 03:43:55;;;;;;;;;5.00;3.00;;;;;21.10;62.42;100379.13;4792043;29;45526;-90
2021/07/25 03:46:20;;;;;;;;;4.33;3.33;;;;;20.99;62.48;100363.44;4788836;29;45490;-91
2021/07/25 03:48:46;;;;;;;;;2.67;2.67;;;;;21.08;62.25;100379.19;4773915;29;47158;-90
2021/07/25 03:51:14;;;;;;;;;2.00;0.00;;;;;21.10;62.31;100379.13;4790235;29;45488;-91
2021/07/25 04:07:18;;;;;;;;;;;;;;;;;;;;;
2021/07/25 04:10:15;;;;;;;;;2.00;2.00;;;;;20.96;62.93;100358.19;4753170;29;75166;-90
2021/07/25 04:12:52;;;;;;;;;4.00;3.00;;;;;21.08;63.42;100378.31;4702171;30;45544;-90
2021/07/25 04:15:49;;;;;;;;;;;;;;;;;;;;;
2021/07/25 04:18:58;;;;;;;;;3.00;3.00;;;;;20.96;63.13;100371.53;4715816;30;63687;-91
2021/07/25 04:21:32;;;;;;;;;3.00;3.00;;;;;20.91;62.89;100359.22;4716923;30;47799;-90
2021/07/25 04:23:58;;;;;;;;;4.00;3.67;;;;;21.01;62.70;100380.31;4731308;30;45363;-90
2021/07/25 04:26:46;;;;;;;;;5.33;2.67;;;;;20.82;62.81;100352.34;4732152;30;45272;-91
2021/07/25 04:29:15;;;;;;;;;5.67;3.00;;;;;20.94;63.00;100372.44;4732171;30;44818;-90
2021/07/25 04:31:41;;;;;;;;;3.00;3.00;;;;;20.81;63.02;100353.25;4729750;30;47695;-89
2021/07/25 04:34:06;;;;;;;;;4.00;3.00;;;;;20.98;63.06;100378.63;4727132;30;45341;-91
2021/07/25 04:36:39;;;;;;;;;3.00;3.00;;;;;20.92;63.05;100373.41;4711309;30;45432;-89
2021/07/25 04:41:44;;;;;;;;;3.00;3.00;;;;;20.81;63.62;100352.41;4099254;27;45207;-89
2021/07/25 04:44:14;;;;;;;;;5.00;4.00;;;;;20.79;63.24;100356.94;4784188;29;45494;-89
2021/07/25 04:47:44;;;;;;;;;3.33;3.33;;;;;20.78;63.22;100361.38;4778426;29;45294;-89
2021/07/25 04:51:12;;;;;;;;;;;;;;;;;;;;;
2021/07/25 04:54:04;;;;;;;;;6.33;4.00;;;;;20.89;63.20;100385.09;4787368;29;46486;-89
2021/07/25 04:57:38;;;;;;;;;;;;;;;;;;;;;
2021/07/25 05:00:55;;;;;;;;;6.00;3.00;;;;;20.87;63.61;100389.63;4755838;29;67962;-89
2021/07/25 05:03:22;;;;;;;;;3.67;3.67;;;;;20.72;63.93;100364.25;5187909;24;47172;-88
2021/07/25 05:05:54;;;;;;;;;3.33;2.67;;;;;20.79;64.27;100375.63;4772484;29;47405;-84
2021/07/25 05:08:19;;;;;;;;;3.00;3.00;;;;;20.80;64.23;100380.91;4774950;29;45318;-86
2021/07/25 05:10:48;;;;;;;;;3.00;3.00;;;;;20.79;64.33;100388.97;4774530;29;45402;-87
2021/07/25 05:13:16;;;;;;;;;4.67;4.00;;;;;20.78;64.65;100387.22;4793403;29;45515;-89
2021/07/25 05:15:45;;;;;;;;;5.00;4.33;;;;;20.77;64.53;100397.00;4797363;29;45655;-90
2021/07/25 05:18:31;;;;;;;;;3.00;2.00;;;;;20.76;64.53;100403.28;4798949;29;45396;-86
2021/07/25 05:21:16;;;;;;;;;2.00;2.00;;;;;20.74;65.06;100406.94;4780099;29;45323;-84
2021/07/25 05:23:44;;;;;;;;;5.00;2.33;;;;;20.70;65.07;100395.47;4792586;29;45392;-84
2021/07/25 05:26:11;;;;;;;;;4.00;4.00;;;;;20.69;65.08;100402.59;4792666;29;46468;-88
2021/07/25 05:28:38;;;;;;;;;3.00;3.00;;;;;20.64;64.97;100396.53;4792715;29;45402;-87
2021/07/25 05:31:06;;;;;;;;;3.33;2.00;;;;;20.59;65.96;100379.75;4792710;29;45303;-85
2021/07/25 05:33:31;;;;;;;;;3.00;3.00;;;;;20.66;65.29;100401.81;4794024;29;45371;-87
2021/07/25 05:35:57;;;;;;;;;4.00;3.00;;;;;20.63;65.30;100402.78;4799034;29;45934;-82
2021/07/25 05:38:22;;;;;;;;;5.33;4.00;;;;;20.61;65.67;100396.63;4799735;29;45506;-84
2021/07/25 05:40:48;;;;;;;;;3.67;3.67;;;;;20.58;65.46;100386.03;4799757;29;45382;-86
2021/07/25 05:43:14;;;;;;;;;3.00;3.00;;;;;20.59;65.83;100383.31;4797805;29;45376;-84
2021/07/25 05:45:40;;;;;;;;;4.00;4.00;;;;;20.56;65.66;100382.53;4793221;29;45802;-83
2021/07/25 05:48:05;;;;;;;;;6.00;4.67;;;;;20.48;66.08;100367.63;4792115;29;45488;-85
2021/07/25 05:50:31;;;;;;;;;5.67;4.00;;;;;20.55;65.82;100376.31;4792094;29;45324;-85
2021/07/25 05:52:58;;;;;;;;;4.33;3.33;;;;;20.58;65.35;100378.03;4791809;29;45420;-85
2021/07/25 05:55:29;;;;;;;;;6.67;5.33;;;;;20.57;65.50;100382.50;4791568;29;45758;-84
2021/07/25 05:57:54;;;;;;;;;4.00;4.00;;;;;20.54;65.71;100382.56;4775313;29;45856;-84
2021/07/25 06:00:20;;;;;;;;;4.33;4.33;;;;;20.55;65.87;100381.66;4775408;29;45361;-84
2021/07/25 06:02:59;;;;;;;;;6.00;4.00;;;;;20.59;66.04;100393.13;4792082;29;45345;-85
2021/07/25 06:05:29;;;;;;;;;5.00;5.00;;;;;20.62;65.95;100382.34;4791157;29;46442;-84
2021/07/25 06:07:56;;;;;;;;;6.00;4.00;;;;;20.65;66.45;100387.59;4791313;29;45403;-86
2021/07/25 06:10:25;;;;;;;;;9.67;5.00;;;;;20.69;66.33;100389.25;4791660;29;45411;-83
2021/07/25 06:12:51;;;;;;;;;5.00;3.00;;;;;20.75;65.91;100396.19;4791648;29;45307;-84
2021/07/25 06:15:18;;;;;;;;;5.67;4.00;;;;;20.80;65.79;100396.94;4791502;29;46214;-84
2021/07/25 06:17:43;;;;;;;;;8.67;5.00;;;;;20.76;65.86;100373.91;4791471;29;45468;-85
2021/07/25 06:20:10;;;;;;;;;5.00;4.00;;;;;20.86;65.96;100398.53;4791107;29;45307;-84
2021/07/25 06:22:37;;;;;;;;;6.67;5.00;;;;;20.89;65.37;100395.78;4775301;29;45610;-80
2021/07/25 06:25:03;;;;;;;;;6.00;4.33;;;;;20.89;65.14;100387.75;4791275;29;46270;-79
2021/07/25 06:27:29;;;;;;;;;6.00;5.00;;;;;20.90;65.42;100386.81;4791242;29;45266;-80
2021/07/25 06:29:54;;;;;;;;;5.00;5.00;;;;;20.90;65.23;100391.28;4791214;29;45273;-78
2021/07/25 06:32:19;;;;;;;;;6.00;6.00;;;;;20.88;65.14;100399.34;4791620;29;45314;-79
2021/07/25 06:34:45;;;;;;;;;6.33;5.67;;;;;20.89;64.86;100390.44;4790897;29;45957;-80
2021/07/25 06:37:10;;;;;;;;;5.00;5.00;;;;;20.90;65.16;100386.81;4791419;29;45257;-79
2021/07/25 06:39:35;;;;;;;;;6.67;6.00;;;;;20.93;65.13;100392.09;4791366;29;45233;-78
2021/07/25 06:42:01;;;;;;;;;5.67;5.67;;;;;20.98;64.81;100394.66;4791625;29;45303;-79
2021/07/25 06:44:26;;;;;;;;;8.33;6.00;;;;;21.01;64.25;100385.66;4791141;29;45230;-79
2021/07/25 06:46:51;;;;;;;;;6.67;5.00;;;;;21.01;64.21;100396.34;4791045;29;45291;-79
2021/07/25 06:49:17;;;;;;;;;7.67;7.00;;;;;21.02;64.59;100406.13;4791328;29;45163;-80
2021/07/25 06:51:42;;;;;;;;;5.67;5.00;;;;;21.02;64.45;100401.66;4791192;29;45300;-80
2021/07/25 06:54:08;;;;;;;;;6.00;6.00;;;;;21.04;64.21;100398.91;4789934;29;46119;-81
2021/07/25 06:56:33;;;;;;;;;7.67;6.00;;;;;21.05;64.18;100400.66;4791149;29;45421;-81
2021/07/25 06:58:58;;;;;;;;;9.00;6.00;;;;;21.09;63.97;100396.97;4790903;29;45503;-80
2021/07/25 07:01:24;;;;;;;;;6.00;6.00;;;;;21.10;63.82;100398.72;4791215;29;45416;-80
2021/07/25 07:03:49;;;;;;;;;7.00;7.00;;;;;21.10;63.80;100406.75;4790613;29;46107;-81
2021/07/25 07:06:14;;;;;;;;;8.00;7.00;;;;;21.11;63.48;100404.94;4790416;29;45410;-77
2021/07/25 07:08:40;;;;;;;;;7.00;7.00;;;;;21.08;63.47;100405.91;4790973;29;45304;-80
2021/07/25 07:11:05;;;;;;;;;7.00;7.00;;;;;21.08;63.78;100405.91;4791106;29;45370;-80
2021/07/25 07:13:31;;;;;;;;;9.00;8.00;;;;;21.13;63.45;100403.09;4790627;29;45575;-80
2021/07/25 07:15:57;;;;;;;;;6.33;6.33;;;;;21.16;63.29;100408.34;4790706;29;45331;-81
2021/07/25 07:18:23;;;;;;;;;9.00;8.33;;;;;21.19;63.23;100408.25;4790609;29;45287;-79
2021/07/25 07:20:48;;;;;;;;;7.00;7.00;;;;;21.19;63.46;100402.03;4790000;29;45481;-81
2021/07/25 07:23:16;;;;;;;;;9.00;7.00;;;;;21.23;62.82;100403.66;4790123;29;46289;-79
2021/07/25 07:25:45;;;;;;;;;8.00;6.33;;;;;21.24;62.79;100408.06;4790576;29;45245;-80
2021/07/25 07:28:11;;;;;;;;;10.67;8.00;;;;;21.29;63.28;100411.50;4790561;29;45452;-84
2021/07/25 07:30:39;;;;;;;;;6.67;5.33;;;;;21.28;62.77;100405.25;4785601;29;45401;-90
2021/07/25 07:33:10;;;;;;;;;6.00;5.67;;;;;21.33;63.23;100407.78;4774931;29;45304;-85
2021/07/25 07:35:36;;;;;;;;;7.33;7.33;;;;;21.37;62.79;100412.09;4772423;29;45328;-86
2021/07/25 07:38:02;;;;;;;;;7.00;5.67;;;;;21.31;62.28;100401.63;4772160;29;45364;-84
2021/07/25 07:40:28;;;;;;;;;7.33;7.33;;;;;21.37;62.67;100408.56;4776122;29;45339;-86
2021/07/25 07:42:56;;;;;;;;;9.00;8.00;;;;;21.39;62.56;100402.22;5262732;24;46850;-78
2021/07/25 07:45:23;;;;;;;;;8.33;8.00;;;;;21.40;62.84;100412.03;4785855;29;45493;-78
2021/07/25 07:47:49;;;;;;;;;6.67;6.00;;;;;21.39;62.45;100412.94;4789149;29;45351;-82
2021/07/25 07:50:16;;;;;;;;;8.00;8.00;;;;;21.37;62.11;100406.75;4789131;29;45541;-81
2021/07/25 07:52:41;;;;;;;;;7.00;5.33;;;;;21.36;62.30;100420.19;4788454;29;45597;-81
2021/07/25 07:55:07;;;;;;;;;8.00;7.00;;;;;21.38;62.68;100421.00;4789260;29;45414;-82
2021/07/25 07:57:32;;;;;;;;;7.00;7.00;;;;;21.38;62.26;100416.50;4788893;29;45234;-81
2021/07/25 07:59:58;;;;;;;;;9.67;8.00;;;;;21.39;62.47;100415.59;4789271;29;45203;-81
2021/07/25 08:02:23;;;;;;;;;8.33;7.33;;;;;21.34;62.19;100412.19;4788844;29;47105;-81
2021/07/25 08:04:49;;;;;;;;;8.33;8.33;;;;;21.36;62.22;100421.03;4790431;29;45404;-81
2021/07/25 08:07:14;;;;;;;;;9.00;7.00;;;;;21.36;62.03;100420.19;4790999;29;45468;-80
2021/07/25 08:09:39;;;;;;;;;11.00;9.00;;;;;21.35;62.05;100413.06;4789966;29;45443;-82
2021/07/25 08:12:06;;;;;;;;;10.00;8.00;;;;;21.36;62.59;100420.19;4789099;29;46154;-81
2021/07/25 08:14:32;;;;;;;;;7.33;5.67;;;;;21.36;62.14;100410.34;4788777;29;45471;-81
2021/07/25 08:16:57;;;;;;;;;10.00;7.33;;;;;21.38;62.64;100419.19;4787809;29;45414;-80
2021/07/25 08:19:23;;;;;;;;;9.67;8.33;;;;;21.36;63.00;100421.03;4788941;29;45336;-82
2021/07/25 08:21:48;;;;;;;;;8.00;8.00;;;;;21.37;62.46;100411.22;4788615;29;46133;-83
2021/07/25 08:24:13;;;;;;;;;9.00;7.00;;;;;21.39;62.35;100412.94;4789420;29;45408;-79
2021/07/25 08:26:39;;;;;;;;;8.33;8.00;;;;;21.39;62.38;100412.94;4790949;29;45414;-87
2021/07/25 08:29:04;;;;;;;;;10.33;8.33;;;;;21.39;63.25;100410.25;4790843;29;45413;-87
2021/07/25 08:31:30;;;;;;;;;9.33;8.00;;;;;21.42;62.44;100403.94;4797207;24;45429;-85
2021/07/25 08:33:55;;;;;;;;;10.00;9.00;;;;;21.46;62.63;100413.59;4756790;29;45298;-86
2021/07/25 08:36:22;;;;;;;;;8.00;6.67;;;;;21.49;62.01;100424.19;4822982;24;45412;-86
2021/07/25 08:38:48;;;;;;;;;8.00;8.00;;;;;21.51;62.52;100414.31;4792997;29;45478;-86
2021/07/25 08:41:13;;;;;;;;;9.00;8.33;;;;;21.52;62.17;100407.16;4792211;29;45476;-87
2021/07/25 08:43:42;;;;;;;;;12.33;7.00;;;;;21.52;62.04;100417.88;4792211;29;45455;-88
2021/07/25 08:46:18;;;;;;;;;11.00;9.67;;;;;21.51;62.22;100408.97;4776110;29;45303;-87
2021/07/25 08:48:49;;;;;;;;;11.67;9.33;;;;;21.54;62.65;100407.09;4792621;29;45236;-87
2021/07/25 08:51:21;;;;;;;;;10.67;7.67;;;;;21.61;62.23;100408.66;4792540;29;46168;-87
2021/07/25 08:54:00;;;;;;;;;12.00;8.33;;;;;21.60;62.06;100413.13;4776133;29;45519;-86
2021/07/25 08:56:28;;;;;;;;;9.67;8.67;;;;;21.64;62.44;100419.25;4792371;29;45223;-86
2021/07/25 08:58:59;;;;;;;;;10.67;8.00;;;;;21.57;62.80;100397.22;4792241;29;45409;-87
2021/07/25 09:01:35;;;;;;;;;8.33;8.33;;;;;21.67;62.80;100418.28;4775558;29;47452;-87
2021/07/25 09:04:02;;;;;;;;;9.67;7.33;;;;;21.64;63.73;100406.75;4791786;29;45345;-87
2021/07/25 09:06:39;;;;;;;;;10.00;8.67;;;;;21.73;63.33;100407.34;4792148;29;45258;-86
2021/07/25 09:09:04;;;;;;;;;8.33;8.00;;;;;21.73;63.88;100407.34;4776465;29;45475;-86
2021/07/25 09:11:30;;;;;;;;;7.00;7.00;;;;;21.74;63.57;100414.47;4792324;29;45451;-86
2021/07/25 09:13:58;;;;;;;;;9.67;9.33;;;;;21.74;63.57;100412.66;4792016;29;45334;-87
2021/07/25 09:16:29;;;;;;;;;8.33;8.33;;;;;21.69;64.17;100411.06;4792084;29;45497;-85
2021/07/25 09:18:54;;;;;;;;;9.00;8.00;;;;;21.70;63.64;100407.47;4793945;29;45385;-86
2021/07/25 09:21:35;;;;;;;;;10.00;9.00;;;;;21.69;64.21;100417.28;4793704;29;47544;-87
2021/07/25 09:24:28;;;;;;;;;8.67;7.00;;;;;21.67;64.24;100421.81;4793238;29;45429;-86
2021/07/25 09:27:06;;;;;;;;;8.00;8.00;;;;;21.64;64.35;100420.13;4792326;29;45551;-86
2021/07/25 09:29:36;;;;;;;;;9.67;8.33;;;;;21.58;64.62;100414.97;4792545;29;45320;-87
2021/07/25 09:32:28;;;;;;;;;10.33;9.00;;;;;21.58;64.93;100419.44;4791930;29;46652;-86
2021/07/25 09:34:53;;;;;;;;;10.33;6.00;;;;;21.55;64.76;100409.75;4788832;29;45452;-86
2021/07/25 09:37:21;;;;;;;;;6.00;6.00;;;;;21.59;64.72;100426.56;4791791;29;45164;-86
2021/07/25 09:39:54;;;;;;;;;8.00;6.67;;;;;21.58;64.92;100424.81;4792144;29;45350;-86
2021/07/25 09:42:31;;;;;;;;;9.33;7.33;;;;;21.55;64.79;100420.44;4775193;29;47736;-86
2021/07/25 09:44:59;;;;;;;;;8.67;6.67;;;;;21.52;65.06;100418.75;4774175;29;45491;-87
2021/07/25 09:47:28;;;;;;;;;11.67;9.33;;;;;21.50;65.28;100420.59;4791641;29;45349;-87
2021/07/25 09:49:56;;;;;;;;;6.00;6.00;;;;;21.51;65.59;100408.97;4791787;29;45378;-86
2021/07/25 09:52:30;;;;;;;;;7.00;6.67;;;;;21.87;65.68;100420.31;4791519;29;45419;-86
2021/07/25 09:54:59;;;;;;;;;9.00;7.00;;;;;22.21;64.90;100413.72;4789985;29;45606;-86
2021/07/25 09:57:25;;;;;;;;;3.00;2.33;;;;;22.67;64.33;100420.13;4791638;29;45451;-86
2021/07/25 09:59:55;;;;;;;;;6.00;6.00;;;;;23.01;64.37;100405.38;4791640;29;45363;-87
2021/07/25 10:02:32;;;;;;;;;8.00;6.00;;;;;23.23;63.43;100404.53;4791129;29;45296;-87
2021/07/25 10:05:17;;;;;;;;;7.67;6.67;;;;;23.34;62.87;100413.94;4789618;29;45435;-86
2021/07/25 10:07:47;;;;;;;;;8.00;6.00;;;;;23.39;62.52;100417.31;4791485;29;45389;-87
2021/07/25 10:10:15;;;;;;;;;10.00;8.00;;;;;23.37;62.04;100411.13;4791496;29;45297;-88
2021/07/25 10:12:43;;;;;;;;;11.67;7.33;;;;;23.39;61.76;100409.25;4791201;29;46600;-87
2021/07/25 10:15:14;;;;;;;;;7.33;7.00;;;;;23.41;62.19;100399.34;4791053;29;45624;-87
2021/07/25 10:17:42;;;;;;;;;7.67;7.00;;;;;23.47;61.49;100399.13;4791300;29;45391;-87
2021/07/25 10:20:12;;;;;;;;;8.33;8.00;;;;;23.58;61.41;100403.16;4774971;29;45500;-87
2021/07/25 10:22:39;;;;;;;;;9.00;7.33;;;;;23.82;62.08;100394.94;4791039;29;45378;-88
2021/07/25 10:25:07;;;;;;;;;8.67;8.67;;;;;24.17;62.52;100395.22;4791061;29;45226;-88
2021/07/25 10:27:34;;;;;;;;;7.00;7.00;;;;;24.45;60.90;100379.66;4791413;29;45397;-88
2021/07/25 10:30:08;;;;;;;;;7.33;7.00;;;;;24.79;59.98;100387.06;4774628;29;45345;-87
2021/07/25 10:32:36;;;;;;;;;12.33;9.33;;;;;25.09;59.10;100384.72;4791258;29;45405;-86
2021/07/25 10:35:04;;;;;;;;;13.00;12.00;;;;;25.29;58.21;100384.69;4790805;29;45398;-86
2021/07/25 10:37:32;;;;;;;;;7.67;7.67;;;;;25.47;58.66;100382.88;4790930;29;45290;-86
2021/07/25 10:40:00;;;;;;;;;10.00;10.00;;;;;25.78;58.85;100383.16;4790668;29;45304;-85
2021/07/25 10:42:28;;;;;;;;;8.33;8.33;;;;;26.01;56.88;100376.53;4790464;29;47529;-86
2021/07/25 10:44:54;;;;;;;;;8.00;8.00;;;;;26.34;56.52;100374.78;4790755;29;45467;-86
2021/07/25 10:47:27;;;;;;;;;8.33;8.33;;;;;26.70;56.08;100383.63;4791000;29;45328;-86
2021/07/25 10:50:07;;;;;;;;;8.33;7.00;;;;;27.08;55.44;100364.44;4791027;29;45291;-86
2021/07/25 10:52:59;;;;;;;;;8.00;6.67;;;;;27.45;54.51;100373.09;4774005;29;48157;-86
2021/07/25 10:55:43;;;;;;;;;7.67;6.33;;;;;27.72;52.17;100375.09;4787944;29;45495;-87
2021/07/25 10:58:19;;;;;;;;;5.67;5.67;;;;;27.96;52.98;100373.72;4790512;29;45417;-86
2021/07/25 11:00:50;;;;;;;;;7.00;7.00;;;;;28.15;51.67;100372.56;4790412;29;45349;-87
2021/07/25 11:03:25;;;;;;;;;9.00;9.00;;;;;28.14;50.37;100378.91;4774095;29;46990;-86
2021/07/25 11:06:05;;;;;;;;;8.33;8.00;;;;;27.92;50.89;100373.00;4791125;29;45459;-86
2021/07/25 11:08:35;;;;;;;;;8.33;6.67;;;;;27.66;50.42;100361.09;4790631;29;45424;-86
2021/07/25 11:11:01;;;;;;;;;9.00;7.33;;;;;27.50;51.15;100380.91;4774149;29;45558;-86
2021/07/25 11:13:40;;;;;;;;;8.00;6.33;;;;;27.33;50.04;100369.28;4789747;29;45574;-86
2021/07/25 11:16:27;;;;;;;;;8.33;7.00;;;;;27.20;50.84;100373.69;4789769;29;45490;-86
2021/07/25 11:18:56;;;;;;;;;9.00;9.00;;;;;26.98;50.64;100369.50;4790075;29;45542;-86
2021/07/25 11:21:32;;;;;;;;;7.00;7.00;;;;;26.83;51.15;100375.72;4790121;29;45343;-86
2021/07/25 11:23:58;;;;;;;;;8.00;8.00;;;;;26.66;51.40;100365.88;4789829;29;46179;-87
2021/07/25 11:26:32;;;;;;;;;8.33;7.00;;;;;26.53;50.71;100372.91;4790300;29;45336;-87
2021/07/25 11:29:02;;;;;;;;;10.67;9.00;;;;;26.34;51.28;100366.69;4790305;29;45364;-86
2021/07/25 11:31:39;;;;;;;;;9.00;9.00;;;;;26.12;51.90;100361.63;4788872;29;45603;-86
2021/07/25 11:34:07;;;;;;;;;10.00;10.00;;;;;25.95;52.97;100359.84;4789833;29;46200;-86
2021/07/25 11:36:33;;;;;;;;;15.67;9.00;;;;;25.67;54.80;100362.13;4788314;29;45471;-86
2021/07/25 11:39:00;;;;;;;;;14.33;14.33;;;;;25.50;56.71;100357.63;4789773;29;45561;-84
2021/07/25 11:41:31;;;;;;;;;13.33;11.00;;;;;25.27;57.11;100363.25;4789636;29;45458;-85
2021/07/25 11:44:09;;;;;;;;;12.00;11.33;;;;;25.04;58.05;100377.84;4789502;29;46018;-85
2021/07/25 11:46:42;;;;;;;;;15.00;11.33;;;;;24.83;58.30;100389.50;4789775;29;45383;-88
2021/07/25 11:49:17;;;;;;;;;12.67;10.33;;;;;24.63;57.85;100377.94;4789580;29;45286;-85
2021/07/25 11:52:00;;;;;;;;;11.00;10.00;;;;;24.46;58.38;100396.66;4789290;29;45349;-86
2021/07/25 11:54:33;;;;;;;;;10.67;9.33;;;;;24.23;58.07;100390.53;4773344;29;46778;-86
2021/07/25 11:57:10;;;;;;;;;15.00;10.00;;;;;24.03;58.72;100390.44;4789355;29;45496;-85
2021/07/25 11:59:46;;;;;;;;;12.67;11.00;;;;;23.86;60.14;100385.81;4789209;29;45535;-86
2021/07/25 12:02:12;;;;;;;;;11.00;10.00;;;;;23.75;59.89;100386.31;4773315;29;45311;-85
2021/07/25 12:04:43;;;;;;;;;12.67;11.67;;;;;23.64;60.82;100384.09;4789000;29;46391;-86
2021/07/25 12:07:13;;;;;;;;;14.00;13.00;;;;;23.60;61.02;100387.84;4788953;29;45414;-86
2021/07/25 12:09:41;;;;;;;;;12.00;11.33;;;;;23.56;61.91;100378.19;4789195;29;45340;-85
2021/07/25 12:12:17;;;;;;;;;13.00;11.00;;;;;23.58;62.59;100369.13;4789678;29;45551;-85
2021/07/25 12:14:48;;;;;;;;;10.67;10.33;;;;;23.65;62.88;100375.09;4788871;29;45535;-85
2021/07/25 12:17:38;;;;;;;;;11.00;9.33;;;;;23.78;62.44;100363.81;4788956;29;45334;-86
2021/07/25 12:20:33;;;;;;;;;6.33;6.33;;;;;23.99;62.46;100375.41;4790154;29;45308;-88
2021/07/25 12:23:04;;;;;;;;;7.33;7.33;;;;;24.15;62.26;100369.38;4789776;29;45542;-86
2021/07/25 12:25:35;;;;;;;;;8.67;8.00;;;;;24.32;62.91;100349.81;4793073;29;45701;-87
2021/07/25 12:28:09;;;;;;;;;8.00;8.00;;;;;24.58;61.84;100365.66;4812064;29;44768;-86
2021/07/25 12:30:40;;;;;;;;;7.67;7.67;;;;;24.68;61.23;100358.91;4814939;29;44732;-86
2021/07/25 12:33:06;;;;;;;;;6.00;6.00;;;;;24.83;59.39;100351.88;4812723;29;44826;-87
2021/07/25 12:35:33;;;;;;;;;12.00;8.00;;;;;24.93;60.66;100352.31;4791270;29;46322;-87
2021/07/25 12:38:00;;;;;;;;;11.33;9.67;;;;;25.09;60.05;100357.84;4774224;29;46145;-86
2021/07/25 12:40:28;;;;;;;;;8.00;7.33;;;;;25.15;59.46;100351.28;4773074;29;45275;-86
2021/07/25 12:42:56;;;;;;;;;10.33;9.00;;;;;25.19;58.29;100354.69;4789476;29;45496;-86
2021/07/25 12:45:22;;;;;;;;;10.33;9.00;;;;;25.18;58.54;100350.25;4788843;29;46124;-86
2021/07/25 12:47:47;;;;;;;;;7.00;7.00;;;;;25.12;58.73;100351.44;4790661;29;45374;-86
2021/07/25 12:50:13;;;;;;;;;11.00;8.33;;;;;25.04;59.10;100343.75;4791627;29;45918;-86
2021/07/25 12:52:38;;;;;;;;;11.33;9.33;;;;;25.01;58.25;100343.91;4790946;29;45423;-86
2021/07/25 12:55:04;;;;;;;;;9.00;9.00;;;;;24.95;58.38;100355.81;4774661;29;48015;-86
2021/07/25 12:57:29;;;;;;;;;7.00;7.00;;;;;24.97;57.45;100353.06;4802856;29;45415;-86
2021/07/25 12:59:56;;;;;;;;;8.33;6.67;;;;;25.00;56.84;100346.69;4805628;29;45240;-85
2021/07/25 13:05:07;;;;;;;;;5.00;5.00;;;;;25.08;56.83;100353.41;4797222;29;45421;-86